Decoded Metar for YPAD (ADELAIDE in AUSTRALIA) (IATA:ADL) | Meteo·Mobile Aviation Weather
aviador You're here:

YPAD Decoded Metar

ADELAIDE in AUSTRALIA
Report Time2019-02-20 01:00:00
UTC Time2019-02-20 01:34:29
Flight Rules vfr VFR
Wind200° at 11 kt
W.Decomp.*RWY 23: 8.7 kt HW 6.8 kt LCW
RWY 12: 3.4 kt HW 10.5 kt RCW
W.Rank200° ranks 21
Current wind is above 200° avg. (9.0)
Visibility9999 m
Phenomena:N/A
Clouds:Broken 036 Hf
Expected CloudBase > 3,600 ft AGL from Temp-Dew spread
Ceiling3,600 ft
Temp20°C (ISA +5)
Dew Point11°C (56% RH)
AAT16.3°C
QNH1019 hPa
Density Alt577 ft
Elevation13 ft
Report Wrong Elevation
Raw Report
METAR YPAD 200100Z 20011KT 9999 BKN036 20/11 Q1019
NOSIG=

Extra information for YPAD:More info

Metar Taf Metar & Taf Last 4 Metars F.Rules Stats Wind Profile Meteogram Temp Stats Airport Information Weather charts Add Link Nearby VenuesMetar ALERT Operation Metar Decoded Social comments

Adelaide Airport Webcam